FVWD weather

Wedza Airport
Wedza, Mashonaland East Province, Zimbabwe

Public forecast

Using degrees Celsius for public forecast. Weather courtesy of forecast.io.

METAR (pilot weather report)

Closest report is Robert Gabriel Mugabe International Airport, 49.7 nm (92.1 km) NW. Retrieved 2019/04/24 09:00 UTC (55 minutes ago):

FVRG 240900Z VRB04KT CAVOK 23/12 Q1024 NOSIG

TAF (pilot weather forecast)

Closest forecast is Robert Gabriel Mugabe International Airport, 49.7 nm (92.1 km) NW. Retrieved 2019/04/24 06:00 UTC (4 hours ago):

TAF FVRG 240400Z 2406/2512 10003KT CAVOK